Time;durP1;ratioP1;P1;durP2;ratioP2;P2;SDS_P1;SDS_P2;PMS_P1;PMS_P2;Temp;Humidity;BMP_temperature;BMP_pressure;BME280_temperature;BME280_humidity;BME280_pressure;Samples;Min_cycle;Max_cycle;Signal;HPM_P1;HPM_P2
2023/06/04 00:02:25;;;;;;;;;;;;;;;14.71;83.56;-18423.50;5011244;28;19937;-78
2023/06/04 00:04:50;;;;;;;;;;;;;;;14.55;85.54;-18419.28;5024605;28;20399;-79
2023/06/04 00:07:15;;;;;;;;;;;;;;;14.49;86.56;-18417.75;5028005;28;20407;-78
2023/06/04 00:09:41;;;;;;;;;;;;;;;14.34;88.37;-18413.66;5045681;28;20438;-78
2023/06/04 00:12:06;;;;;;;;;;;;;;;14.35;87.88;-18413.94;5029726;28;20063;-78
2023/06/04 00:14:32;;;;;;;;;;;;;;;14.44;87.90;-18416.38;5015836;28;19921;-78
2023/06/04 00:16:57;;;;;;;;;;;;;;;14.24;89.77;-18411.06;5032400;28;19921;-78
2023/06/04 00:19:22;;;;;;;;;;;;;;;14.31;89.94;-18412.84;5026738;28;19924;-78
2023/06/04 00:21:48;;;;;;;;;;;;;;;14.32;89.74;-18413.25;5009230;28;19951;-78
2023/06/04 00:24:13;;;;;;;;;;;;;;;14.04;91.01;-18405.56;5023317;28;19929;-78
2023/06/04 00:26:38;;;;;;;;;;;;;;;13.91;93.02;-18402.28;5018562;28;20306;-78
2023/06/04 00:29:04;;;;;;;;;;;;;;;13.90;93.82;-18402.00;5024808;28;22101;-78
2023/06/04 00:31:29;;;;;;;;;;;;;;;13.81;94.79;-18399.41;5013752;28;19959;-78
2023/06/04 00:33:54;;;;;;;;;;;;;;;13.73;95.49;-18397.50;5030663;28;20298;-78
2023/06/04 00:36:20;;;;;;;;;;;;;;;13.69;96.73;-18396.41;5020083;28;19952;-78
2023/06/04 00:38:45;;;;;;;;;;;;;;;13.79;96.31;-18399.00;5031318;28;19921;-78
2023/06/04 00:41:11;;;;;;;;;;;;;;;13.71;95.82;-18396.94;5026595;28;20331;-78
2023/06/04 00:43:36;;;;;;;;;;;;;;;13.72;96.26;-18397.09;5028472;28;20003;-78
2023/06/04 00:46:03;;;;;;;;;;;;;;;13.69;95.54;-18396.41;5016099;28;19948;-78
2023/06/04 00:48:28;;;;;;;;;;;;;;;13.65;96.28;-18395.31;5016991;28;19917;-78
2023/06/04 00:50:54;;;;;;;;;;;;;;;13.74;95.59;-18397.75;5044919;28;20470;-78
2023/06/04 00:53:20;;;;;;;;;;;;;;;13.80;94.76;-18399.13;5035883;28;20431;-78
2023/06/04 00:55:46;;;;;;;;;;;;;;;13.65;96.00;-18395.16;5033365;28;20064;-78
2023/06/04 00:58:12;;;;;;;;;;;;;;;13.48;97.38;-18390.66;5030392;28;20428;-78
2023/06/04 01:00:38;;;;;;;;;;;;;;;13.50;98.43;-18391.19;5021972;28;20407;-78
2023/06/04 01:03:07;;;;;;;;;;;;;;;13.43;98.44;-18389.28;5020052;28;20407;-78
2023/06/04 01:05:48;;;;;;;;;;;;;;;13.32;99.73;-18386.41;5023445;28;19918;-78
2023/06/04 01:08:13;;;;;;;;;;;;;;;13.26;100.00;-18384.75;5024632;28;19924;-81
2023/06/04 01:10:49;;;;;;;;;;;;;;;13.32;99.92;-18386.41;5023765;28;20330;-81
2023/06/04 01:13:15;;;;;;;;;;;;;;;13.29;99.48;-18385.56;5018259;28;19933;-81
2023/06/04 01:15:40;;;;;;;;;;;;;;;13.25;100.00;-18384.63;5040466;28;20490;-81
2023/06/04 01:18:06;;;;;;;;;;;;;;;13.16;100.00;-18382.13;5032131;28;19917;-81
2023/06/04 01:20:40;;;;;;;;;;;;;;;13.19;100.00;-18382.97;5033551;28;19917;-81
2023/06/04 01:23:33;;;;;;;;;;;;;;;13.23;100.00;-18384.06;5019565;28;19953;-81
2023/06/04 01:26:02;;;;;;;;;;;;;;;13.07;100.00;-18379.69;5010858;28;19918;-80
2023/06/04 01:28:29;;;;;;;;;;;;;;;13.08;100.00;-18380.09;5032157;28;20016;-81
2023/06/04 01:30:56;;;;;;;;;;;;;;;12.99;100.00;-18377.63;5029225;28;20006;-81
2023/06/04 01:33:22;;;;;;;;;;;;;;;13.01;100.00;-18378.16;5015991;28;20300;-81
2023/06/04 01:35:47;;;;;;;;;;;;;;;12.65;100.00;-18368.44;5039994;28;19918;-81
2023/06/04 01:38:12;;;;;;;;;;;;;;;12.82;100.00;-18372.97;5017316;28;19975;-81
2023/06/04 01:40:38;;;;;;;;;;;;;;;12.84;100.00;-18373.63;5030717;28;19917;-81
2023/06/04 01:43:03;;;;;;;;;;;;;;;12.80;100.00;-18372.41;5022280;28;20421;-80
2023/06/04 01:45:29;;;;;;;;;;;;;;;12.65;100.00;-18368.44;5021110;28;19924;-81
2023/06/04 01:47:54;;;;;;;;;;;;;;;12.60;100.00;-18367.19;5022593;28;19922;-81
2023/06/04 01:50:20;;;;;;;;;;;;;;;12.61;100.00;-18367.34;5031075;28;19917;-81
2023/06/04 01:52:45;;;;;;;;;;;;;;;12.59;100.00;-18366.91;5030783;28;20308;-80
2023/06/04 01:55:13;;;;;;;;;;;;;;;12.60;100.00;-18367.06;5025739;28;19933;-81
2023/06/04 01:57:38;;;;;;;;;;;;;;;12.65;100.00;-18368.56;5031377;28;20455;-81
2023/06/04 02:00:05;;;;;;;;;;;;;;;12.68;100.00;-18369.25;5025250;28;19964;-80
2023/06/04 02:02:30;;;;;;;;;;;;;;;12.59;100.00;-18366.78;5025550;28;19927;-82
2023/06/04 02:04:56;;;;;;;;;;;;;;;12.58;100.00;-18366.50;5030408;28;20368;-80
2023/06/04 02:07:21;;;;;;;;;;;;;;;12.58;100.00;-18366.50;5025068;28;19918;-80
2023/06/04 02:09:47;;;;;;;;;;;;;;;12.56;100.00;-18365.97;5039840;28;19917;-80
2023/06/04 02:12:12;;;;;;;;;;;;;;;12.55;100.00;-18365.69;5031080;28;19960;-81
2023/06/04 02:14:38;;;;;;;;;;;;;;;12.54;100.00;-18365.56;5031161;28;20008;-81
2023/06/04 02:17:04;;;;;;;;;;;;;;;12.54;100.00;-18365.41;5031759;28;20688;-81
2023/06/04 02:19:29;;;;;;;;;;;;;;;12.62;100.00;-18367.59;5032043;28;19917;-81
2023/06/04 02:21:54;;;;;;;;;;;;;;;12.73;100.00;-18370.63;5028767;28;19918;-81
2023/06/04 02:24:20;;;;;;;;;;;;;;;12.57;100.00;-18366.38;5019325;28;19925;-81
2023/06/04 02:26:46;;;;;;;;;;;;;;;12.36;100.00;-18360.75;5027059;28;20012;-80
2023/06/04 02:29:11;;;;;;;;;;;;;;;12.30;100.00;-18358.97;5030828;28;19924;-80
2023/06/04 02:31:36;;;;;;;;;;;;;;;12.36;100.00;-18360.63;5027933;28;19923;-80
2023/06/04 02:34:02;;;;;;;;;;;;;;;12.32;100.00;-18359.66;5032697;28;19921;-80
2023/06/04 02:36:28;;;;;;;;;;;;;;;12.34;100.00;-18360.19;5021550;28;19917;-80
2023/06/04 02:38:54;;;;;;;;;;;;;;;12.23;100.00;-18357.19;5032046;28;19921;-80
2023/06/04 02:41:19;;;;;;;;;;;;;;;12.19;100.00;-18356.09;5015184;28;19924;-80
2023/06/04 02:43:45;;;;;;;;;;;;;;;12.04;100.00;-18351.97;5014040;28;20372;-80
2023/06/04 02:46:10;;;;;;;;;;;;;;;12.04;100.00;-18351.97;5029213;28;20012;-80
2023/06/04 02:48:35;;;;;;;;;;;;;;;12.04;100.00;-18351.97;5028547;28;19921;-81
2023/06/04 02:51:00;;;;;;;;;;;;;;;12.11;100.00;-18353.88;5030586;28;20020;-80
2023/06/04 02:53:26;;;;;;;;;;;;;;;12.00;100.00;-18351.00;5032502;28;19965;-80
2023/06/04 02:55:52;;;;;;;;;;;;;;;11.99;100.00;-18350.59;5027775;28;19925;-80
2023/06/04 02:58:18;;;;;;;;;;;;;;;11.85;100.00;-18346.88;5013338;28;19918;-80
2023/06/04 03:00:44;;;;;;;;;;;;;;;11.75;100.00;-18344.28;5028822;28;19925;-80
2023/06/04 03:03:09;;;;;;;;;;;;;;;11.63;100.00;-18341.00;5027885;28;19917;-80
2023/06/04 03:05:36;;;;;;;;;;;;;;;11.71;100.00;-18343.19;5020370;28;19917;-80
2023/06/04 03:08:03;;;;;;;;;;;;;;;11.57;100.00;-18339.34;5016094;28;19917;-80
2023/06/04 03:10:28;;;;;;;;;;;;;;;11.54;100.00;-18338.66;5011027;28;20292;-80
2023/06/04 03:12:54;;;;;;;;;;;;;;;11.48;100.00;-18337.00;5012531;28;19921;-80
2023/06/04 03:15:20;;;;;;;;;;;;;;;11.49;100.00;-18337.28;5022730;28;19918;-80
2023/06/04 03:17:45;;;;;;;;;;;;;;;11.48;100.00;-18337.16;5012085;28;19917;-80
2023/06/04 03:20:10;;;;;;;;;;;;;;;11.43;100.00;-18335.78;5029601;28;19967;-80
2023/06/04 03:22:36;;;;;;;;;;;;;;;11.39;100.00;-18334.66;5028480;28;19921;-80
2023/06/04 03:25:01;;;;;;;;;;;;;;;11.41;100.00;-18335.22;5022520;28;20388;-80
2023/06/04 03:27:27;;;;;;;;;;;;;;;11.38;100.00;-18334.41;5030232;28;19987;-80
2023/06/04 03:29:52;;;;;;;;;;;;;;;11.43;100.00;-18335.78;5021561;28;19917;-80
2023/06/04 03:32:17;;;;;;;;;;;;;;;11.27;100.00;-18331.38;5017131;28;19917;-80
2023/06/04 03:34:43;;;;;;;;;;;;;;;11.25;100.00;-18330.84;5029868;28;19917;-80
2023/06/04 03:37:09;;;;;;;;;;;;;;;11.28;100.00;-18331.66;5017972;28;20289;-81
2023/06/04 03:39:34;;;;;;;;;;;;;;;11.29;100.00;-18331.94;5025178;28;19960;-80
2023/06/04 03:42:00;;;;;;;;;;;;;;;11.32;100.00;-18332.75;5019518;28;20426;-80
2023/06/04 03:44:25;;;;;;;;;;;;;;;11.34;100.00;-18333.16;5020397;28;19924;-80
2023/06/04 03:46:51;;;;;;;;;;;;;;;11.33;100.00;-18332.88;5019089;28;19921;-80
2023/06/04 03:49:17;;;;;;;;;;;;;;;11.40;100.00;-18334.94;5017683;28;19917;-80
2023/06/04 03:51:42;;;;;;;;;;;;;;;11.36;100.00;-18333.72;5022740;28;19921;-80
2023/06/04 03:54:07;;;;;;;;;;;;;;;11.42;100.00;-18335.50;5035199;28;19971;-80
2023/06/04 03:56:32;;;;;;;;;;;;;;;11.46;100.00;-18336.47;5017989;28;20474;-80
2023/06/04 03:58:58;;;;;;;;;;;;;;;11.45;100.00;-18336.19;5020827;28;20016;-80
2023/06/04 04:01:23;;;;;;;;;;;;;;;11.49;100.00;-18337.28;5017117;28;19969;-80
2023/06/04 04:03:49;;;;;;;;;;;;;;;11.37;100.00;-18334.00;5021831;28;20502;-80
2023/06/04 04:06:15;;;;;;;;;;;;;;;11.42;100.00;-18335.34;5011196;28;19947;-80
2023/06/04 04:08:42;;;;;;;;;;;;;;;11.46;100.00;-18336.47;5020129;28;19931;-78
2023/06/04 04:11:07;;;;;;;;;;;;;;;11.40;100.00;-18334.94;5014300;28;20281;-79
2023/06/04 04:13:32;;;;;;;;;;;;;;;11.43;100.00;-18335.78;5034723;28;19956;-78
2023/06/04 04:15:57;;;;;;;;;;;;;;;11.42;100.00;-18335.34;5021478;28;19925;-78
2023/06/04 04:18:23;;;;;;;;;;;;;;;11.44;100.00;-18336.03;5023116;28;19921;-78
2023/06/04 04:20:48;;;;;;;;;;;;;;;11.52;100.00;-18338.09;5021779;28;19917;-78
2023/06/04 04:23:14;;;;;;;;;;;;;;;11.57;100.00;-18339.34;5023150;28;19921;-79
2023/06/04 04:25:39;;;;;;;;;;;;;;;11.58;100.00;-18339.63;5015961;28;19929;-79
2023/06/04 04:28:06;;;;;;;;;;;;;;;11.66;100.00;-18341.81;5011083;28;19972;-78
2023/06/04 04:30:33;;;;;;;;;;;;;;;11.62;100.00;-18340.84;5019861;28;19987;-79
2023/06/04 04:32:59;;;;;;;;;;;;;;;11.60;100.00;-18340.31;5021898;28;19928;-79
2023/06/04 04:35:24;;;;;;;;;;;;;;;11.62;100.00;-18340.72;5014231;28;19917;-78
2023/06/04 04:37:50;;;;;;;;;;;;;;;11.64;100.00;-18341.25;5024993;28;19921;-79
2023/06/04 04:40:15;;;;;;;;;;;;;;;11.66;100.00;-18341.81;5020216;28;19991;-79
2023/06/04 04:42:41;;;;;;;;;;;;;;;11.75;100.00;-18344.28;5023399;28;19960;-79
2023/06/04 04:45:07;;;;;;;;;;;;;;;11.78;100.00;-18344.97;5021737;28;19929;-79
2023/06/04 04:47:32;;;;;;;;;;;;;;;11.90;100.00;-18348.41;5034790;28;19964;-79
2023/06/04 04:49:57;;;;;;;;;;;;;;;11.93;100.00;-18349.09;5018441;28;19925;-79
2023/06/04 04:52:22;;;;;;;;;;;;;;;11.97;100.00;-18350.19;5040064;28;20296;-79
2023/06/04 04:54:48;;;;;;;;;;;;;;;11.98;100.00;-18350.31;5034590;28;20411;-79
2023/06/04 04:57:13;;;;;;;;;;;;;;;11.99;100.00;-18350.72;5024009;28;19924;-79
2023/06/04 04:59:38;;;;;;;;;;;;;;;12.15;100.00;-18355.13;5025133;28;19928;-78
2023/06/04 05:02:03;;;;;;;;;;;;;;;12.32;100.00;-18359.66;5021301;28;19921;-79
2023/06/04 05:04:28;;;;;;;;;;;;;;;12.36;100.00;-18360.75;5039124;28;19929;-79
2023/06/04 05:06:54;;;;;;;;;;;;;;;12.17;100.00;-18355.53;5019127;28;19925;-78
2023/06/04 05:09:20;;;;;;;;;;;;;;;12.23;100.00;-18357.19;5011982;28;20495;-79
2023/06/04 05:11:45;;;;;;;;;;;;;;;12.37;100.00;-18360.88;5020203;28;19924;-78
2023/06/04 05:14:10;;;;;;;;;;;;;;;12.45;100.00;-18363.09;5023843;28;20358;-79
2023/06/04 05:16:37;;;;;;;;;;;;;;;12.50;100.00;-18364.31;5023678;28;20387;-79
2023/06/04 05:19:03;;;;;;;;;;;;;;;12.41;100.00;-18362.13;5019710;28;19921;-79
2023/06/04 05:21:31;;;;;;;;;;;;;;;12.61;100.00;-18367.47;5017596;28;20048;-78
2023/06/04 05:23:56;;;;;;;;;;;;;;;12.73;100.00;-18370.50;5018647;28;19932;-79
2023/06/04 05:26:25;;;;;;;;;;;;;;;12.71;100.00;-18369.94;5021000;28;20384;-79
2023/06/04 05:28:50;;;;;;;;;;;;;;;12.89;100.00;-18374.88;5033408;28;19944;-78
2023/06/04 05:31:18;;;;;;;;;;;;;;;13.02;100.00;-18378.31;5027149;28;19921;-79
2023/06/04 05:33:43;;;;;;;;;;;;;;;13.21;100.00;-18383.50;5023657;28;19929;-78
2023/06/04 05:36:09;;;;;;;;;;;;;;;13.24;100.00;-18384.19;5018928;28;19978;-78
2023/06/04 05:38:35;;;;;;;;;;;;;;;13.31;100.00;-18386.25;5028089;28;20354;-78
2023/06/04 05:41:00;;;;;;;;;;;;;;;13.39;100.00;-18388.31;5033951;28;19928;-79
2023/06/04 05:43:26;;;;;;;;;;;;;;;13.38;100.00;-18387.91;5028754;28;20484;-79
2023/06/04 05:45:51;;;;;;;;;;;;;;;13.41;100.00;-18388.72;5030336;28;19951;-78
2023/06/04 05:48:16;;;;;;;;;;;;;;;13.48;100.00;-18390.66;5018365;28;19921;-79
2023/06/04 05:50:42;;;;;;;;;;;;;;;13.58;100.00;-18393.25;5019832;28;19921;-79
2023/06/04 05:53:07;;;;;;;;;;;;;;;13.70;100.00;-18396.66;5022665;28;19928;-78
2023/06/04 05:55:32;;;;;;;;;;;;;;;13.79;100.00;-18398.88;5023762;28;19917;-78
2023/06/04 05:57:57;;;;;;;;;;;;;;;13.90;100.00;-18401.88;5027950;28;19925;-79
2023/06/04 06:00:23;;;;;;;;;;;;;;;14.03;100.00;-18405.44;5030814;28;19929;-79
2023/06/04 06:02:54;;;;;;;;;;;;;;;14.09;100.00;-18406.94;5029449;28;19925;-79
2023/06/04 06:05:20;;;;;;;;;;;;;;;14.27;100.00;-18411.88;5026578;28;19933;-79
2023/06/04 06:07:45;;;;;;;;;;;;;;;14.44;100.00;-18416.53;5019388;28;20380;-79
2023/06/04 06:10:11;;;;;;;;;;;;;;;14.47;100.00;-18417.06;5017133;28;19921;-79
2023/06/04 06:12:36;;;;;;;;;;;;;;;14.62;100.00;-18421.31;5021567;28;19929;-79
2023/06/04 06:15:02;;;;;;;;;;;;;;;14.62;100.00;-18421.31;5026022;28;19917;-79
2023/06/04 06:17:28;;;;;;;;;;;;;;;14.78;100.00;-18425.56;5033059;28;20547;-79
2023/06/04 06:19:53;;;;;;;;;;;;;;;14.81;100.00;-18426.38;5020359;28;19922;-78
2023/06/04 06:22:19;;;;;;;;;;;;;;;14.97;100.00;-18430.50;5019220;28;20676;-78
2023/06/04 06:24:44;;;;;;;;;;;;;;;15.03;100.00;-18432.13;5015963;28;20399;-79
2023/06/04 06:27:10;;;;;;;;;;;;;;;15.20;100.00;-18436.66;5022763;28;19957;-78
2023/06/04 06:29:35;;;;;;;;;;;;;;;15.30;100.00;-18439.53;5024835;28;20357;-79
2023/06/04 06:32:00;;;;;;;;;;;;;;;15.33;100.00;-18440.34;5020363;28;20055;-79
2023/06/04 06:34:26;;;;;;;;;;;;;;;15.51;100.00;-18445.13;5022922;28;19975;-80
2023/06/04 06:36:51;;;;;;;;;;;;;;;15.71;96.63;-18450.34;5011776;28;19917;-80
2023/06/04 06:39:16;;;;;;;;;;;;;;;15.81;96.15;-18453.06;5011189;28;19917;-79
2023/06/04 06:41:42;;;;;;;;;;;;;;;15.90;94.30;-18455.53;5028931;28;19924;-79
2023/06/04 06:44:07;;;;;;;;;;;;;;;16.12;93.21;-18461.28;5030191;28;19972;-80
2023/06/04 06:46:32;;;;;;;;;;;;;;;16.16;92.33;-18462.38;5032344;28;20329;-80
2023/06/04 06:48:57;;;;;;;;;;;;;;;16.37;95.37;-18468.09;5030698;28;19925;-80
2023/06/04 06:51:23;;;;;;;;;;;;;;;16.48;92.18;-18470.97;5022199;28;19917;-79
2023/06/04 06:53:51;;;;;;;;;;;;;;;16.51;87.46;-18471.66;5027525;28;20025;-80
2023/06/04 06:56:18;;;;;;;;;;;;;;;16.61;85.41;-18474.38;5017276;28;19925;-80
2023/06/04 06:58:43;;;;;;;;;;;;;;;16.74;85.14;-18477.81;5019874;28;19980;-80
2023/06/04 07:01:09;;;;;;;;;;;;;;;16.78;81.64;-18478.91;5026519;28;19921;-80
2023/06/04 07:03:34;;;;;;;;;;;;;;;16.89;81.30;-18482.03;5027070;28;19952;-80
2023/06/04 07:05:59;;;;;;;;;;;;;;;17.01;80.46;-18485.19;5023553;28;20392;-80
2023/06/04 07:08:25;;;;;;;;;;;;;;;16.98;77.87;-18484.38;5020229;28;19928;-80
2023/06/04 07:10:51;;;;;;;;;;;;;;;17.23;76.80;-18490.91;5028679;28;19929;-80
2023/06/04 07:13:16;;;;;;;;;;;;;;;17.22;79.77;-18490.78;5019269;28;19936;-80
2023/06/04 07:15:41;;;;;;;;;;;;;;;17.41;78.41;-18495.69;5021550;28;19922;-80
2023/06/04 07:18:07;;;;;;;;;;;;;;;17.46;74.63;-18497.19;5021263;28;19923;-80
2023/06/04 07:20:32;;;;;;;;;;;;;;;17.51;71.21;-18498.44;5025903;28;19917;-80
2023/06/04 07:22:57;;;;;;;;;;;;;;;17.50;69.15;-18498.16;5029888;28;20431;-80
2023/06/04 07:25:23;;;;;;;;;;;;;;;17.50;70.92;-18498.16;5019396;28;20451;-80
2023/06/04 07:27:51;;;;;;;;;;;;;;;17.69;71.88;-18503.19;5023489;28;19936;-81
2023/06/04 07:30:16;;;;;;;;;;;;;;;17.90;72.20;-18508.94;5025876;28;20000;-80
2023/06/04 07:32:45;;;;;;;;;;;;;;;17.75;71.21;-18504.97;5027899;28;20779;-82
2023/06/04 07:35:11;;;;;;;;;;;;;;;17.92;70.01;-18509.47;5018248;28;19976;-80
2023/06/04 07:37:36;;;;;;;;;;;;;;;17.96;64.82;-18510.44;5025679;28;19925;-80
2023/06/04 07:40:02;;;;;;;;;;;;;;;18.12;65.66;-18514.81;5020088;28;19921;-84
2023/06/04 07:42:27;;;;;;;;;;;;;;;18.19;64.50;-18516.56;5018787;28;19922;-80
2023/06/04 07:44:52;;;;;;;;;;;;;;;18.30;63.04;-18519.44;5015347;28;19917;-81
2023/06/04 07:47:17;;;;;;;;;;;;;;;18.49;61.91;-18524.75;5030265;28;19956;-80
2023/06/04 07:49:43;;;;;;;;;;;;;;;18.59;58.40;-18527.22;5025924;28;19960;-80
2023/06/04 07:52:08;;;;;;;;;;;;;;;18.75;56.94;-18531.56;5018364;28;19925;-80
2023/06/04 07:54:33;;;;;;;;;;;;;;;18.82;58.06;-18533.50;5026068;28;19925;-79
2023/06/04 07:56:58;;;;;;;;;;;;;;;18.96;57.75;-18537.03;5044250;28;19971;-80
2023/06/04 07:59:24;;;;;;;;;;;;;;;18.92;58.21;-18536.06;5030599;28;19918;-80
2023/06/04 08:01:50;;;;;;;;;;;;;;;19.25;54.13;-18544.78;5021642;28;19917;-80
2023/06/04 08:04:16;;;;;;;;;;;;;;;19.36;55.60;-18547.78;5009241;28;19925;-79
2023/06/04 08:06:42;;;;;;;;;;;;;;;19.55;54.38;-18552.97;5041813;28;20495;-80
2023/06/04 08:09:10;;;;;;;;;;;;;;;19.58;52.94;-18553.78;5021688;28;19925;-80
2023/06/04 08:11:35;;;;;;;;;;;;;;;19.65;51.55;-18555.56;5027338;28;19921;-80
2023/06/04 08:14:00;;;;;;;;;;;;;;;19.74;49.30;-18557.88;5028953;28;19928;-80
2023/06/04 08:16:25;;;;;;;;;;;;;;;19.81;50.81;-18559.78;5028249;28;19924;-81
2023/06/04 08:18:50;;;;;;;;;;;;;;;19.96;48.64;-18563.72;5023085;28;19925;-80
2023/06/04 08:21:24;;;;;;;;;;;;;;;19.99;46.84;-18564.56;5023416;28;19921;-80
2023/06/04 08:23:49;;;;;;;;;;;;;;;20.05;49.04;-18566.31;5020487;28;19944;-80
2023/06/04 08:26:15;;;;;;;;;;;;;;;20.04;48.20;-18566.03;5017253;28;19921;-80
2023/06/04 08:28:40;;;;;;;;;;;;;;;20.27;49.18;-18572.03;5020309;28;19917;-79
2023/06/04 08:31:05;;;;;;;;;;;;;;;20.41;47.16;-18575.72;5033505;28;19928;-80
2023/06/04 08:33:30;;;;;;;;;;;;;;;20.44;46.20;-18576.53;5026740;28;20304;-80
2023/06/04 08:35:56;;;;;;;;;;;;;;;20.63;44.50;-18581.69;5018771;28;19925;-79
2023/06/04 08:38:21;;;;;;;;;;;;;;;20.87;45.39;-18588.09;5022392;28;19928;-79
2023/06/04 08:40:51;;;;;;;;;;;;;;;21.02;43.26;-18591.91;5024464;28;19925;-80
2023/06/04 08:43:17;;;;;;;;;;;;;;;21.01;42.64;-18591.78;5025017;28;19917;-79
2023/06/04 08:45:43;;;;;;;;;;;;;;;21.01;42.52;-18591.78;5024182;28;20475;-80
2023/06/04 08:48:11;;;;;;;;;;;;;;;20.99;41.00;-18591.09;5025440;28;20296;-80
2023/06/04 08:50:36;;;;;;;;;;;;;;;21.16;42.53;-18595.72;5026657;28;19928;-80
2023/06/04 08:53:02;;;;;;;;;;;;;;;21.42;40.85;-18602.66;5023262;28;19929;-80
2023/06/04 08:55:27;;;;;;;;;;;;;;;21.46;40.89;-18603.59;5026826;28;19917;-79
2023/06/04 08:57:53;;;;;;;;;;;;;;;21.73;41.26;-18610.94;5029739;28;19917;-80
2023/06/04 09:00:19;;;;;;;;;;;;;;;21.45;40.71;-18603.31;5037739;28;19929;-79
2023/06/04 09:02:44;;;;;;;;;;;;;;;21.42;39.26;-18602.50;5031283;28;19917;-80
2023/06/04 09:05:18;;;;;;;;;;;;;;;21.48;40.55;-18604.28;5025964;28;19924;-80
2023/06/04 09:07:45;;;;;;;;;;;;;;;21.56;41.12;-18606.31;5017720;28;20345;-80
2023/06/04 09:10:12;;;;;;;;;;;;;;;21.70;40.35;-18610.13;5030670;28;19940;-79
2023/06/04 09:12:41;;;;;;;;;;;;;;;21.76;38.58;-18611.63;5029744;28;19917;-79
2023/06/04 09:15:07;;;;;;;;;;;;;;;21.65;39.09;-18608.75;5028120;28;19922;-80
2023/06/04 09:17:32;;;;;;;;;;;;;;;21.71;39.67;-18610.41;5040734;28;19925;-79
2023/06/04 09:19:57;;;;;;;;;;;;;;;22.02;37.69;-18618.53;5023497;28;19921;-79
2023/06/04 09:22:35;;;;;;;;;;;;;;;22.13;37.95;-18621.41;5018084;28;19921;-80
2023/06/04 09:25:02;;;;;;;;;;;;;;;22.17;37.97;-18622.63;5025361;28;19917;-80
2023/06/04 09:27:28;;;;;;;;;;;;;;;22.17;37.77;-18622.63;5033062;28;19926;-80
2023/06/04 09:29:56;;;;;;;;;;;;;;;22.33;37.12;-18626.69;5029790;28;19964;-80
2023/06/04 09:32:22;;;;;;;;;;;;;;;22.30;35.34;-18626.03;5032466;28;19967;-80
2023/06/04 09:34:47;;;;;;;;;;;;;;;22.29;34.81;-18625.88;5033267;28;19929;-79
2023/06/04 09:37:18;;;;;;;;;;;;;;;22.28;35.51;-18625.47;5033049;28;19969;-80
2023/06/04 09:39:44;;;;;;;;;;;;;;;22.69;35.29;-18636.34;5028614;28;19944;-79
2023/06/04 09:42:09;;;;;;;;;;;;;;;22.69;34.38;-18636.47;5031925;28;19979;-80
2023/06/04 09:44:47;;;;;;;;;;;;;;;22.80;35.68;-18639.19;5023326;28;19917;-80
2023/06/04 09:47:12;;;;;;;;;;;;;;;22.93;34.88;-18642.84;5030784;28;20388;-80
2023/06/04 09:49:45;;;;;;;;;;;;;;;23.00;33.96;-18644.63;5030143;28;19917;-80
2023/06/04 09:52:10;;;;;;;;;;;;;;;22.99;35.35;-18644.34;5023341;28;19921;-80
2023/06/04 09:54:36;;;;;;;;;;;;;;;23.02;33.90;-18645.03;5025151;28;19925;-80
2023/06/04 09:57:02;;;;;;;;;;;;;;;22.94;34.65;-18643.00;5023785;28;19925;-80
2023/06/04 09:59:28;;;;;;;;;;;;;;;22.85;33.77;-18640.56;5023213;28;19948;-80
2023/06/04 10:01:53;;;;;;;;;;;;;;;22.49;33.72;-18631.19;5037597;28;19960;-80
2023/06/04 10:04:19;;;;;;;;;;;;;;;22.74;35.27;-18637.84;5020988;28;19959;-80
2023/06/04 10:06:44;;;;;;;;;;;;;;;23.04;34.49;-18645.56;5021009;28;20401;-80
2023/06/04 10:09:12;;;;;;;;;;;;;;;23.03;35.08;-18645.31;5021836;28;20500;-79
2023/06/04 10:11:39;;;;;;;;;;;;;;;23.38;33.61;-18654.78;5025318;28;19925;-80
2023/06/04 10:14:25;;;;;;;;;;;;;;;23.48;33.71;-18657.38;5018865;28;19929;-80
2023/06/04 10:16:53;;;;;;;;;;;;;;;23.62;34.00;-18661.16;5023382;28;19928;-80
2023/06/04 10:19:19;;;;;;;;;;;;;;;23.55;33.54;-18659.13;5018988;28;19947;-80
2023/06/04 10:21:45;;;;;;;;;;;;;;;23.69;33.87;-18662.81;5023687;28;20530;-80
2023/06/04 10:24:14;;;;;;;;;;;;;;;23.67;34.09;-18662.38;5020395;28;19921;-80
2023/06/04 10:26:40;;;;;;;;;;;;;;;23.52;34.89;-18658.31;5024326;28;19936;-80
2023/06/04 10:29:06;;;;;;;;;;;;;;;23.76;33.78;-18664.69;5020838;28;19925;-80
2023/06/04 10:31:31;;;;;;;;;;;;;;;23.59;33.71;-18660.34;5021208;28;20419;-80
2023/06/04 10:33:57;;;;;;;;;;;;;;;23.68;34.36;-18662.53;5024902;28;19933;-80
2023/06/04 10:36:23;;;;;;;;;;;;;;;23.53;33.12;-18658.59;5023533;28;19930;-80
2023/06/04 10:38:49;;;;;;;;;;;;;;;23.36;32.80;-18654.13;5022379;28;19925;-80
2023/06/04 10:41:18;;;;;;;;;;;;;;;23.54;33.81;-18659.00;5021740;28;19921;-80
2023/06/04 10:43:50;;;;;;;;;;;;;;;23.73;33.81;-18664.03;5024688;28;19936;-80
2023/06/04 10:46:19;;;;;;;;;;;;;;;23.67;33.44;-18662.25;5022528;28;19929;-80
2023/06/04 10:48:45;;;;;;;;;;;;;;;23.63;34.52;-18661.44;5025485;28;19983;-80
2023/06/04 10:51:10;;;;;;;;;;;;;;;23.94;34.41;-18669.44;5020675;28;19926;-80
2023/06/04 10:53:38;;;;;;;;;;;;;;;24.04;34.51;-18672.16;5021648;28;20028;-80
2023/06/04 10:56:04;;;;;;;;;;;;;;;23.91;33.77;-18668.78;5024857;28;19960;-80
2023/06/04 10:58:33;;;;;;;;;;;;;;;23.79;34.22;-18665.66;5020269;28;19921;-79
2023/06/04 11:00:58;;;;;;;;;;;;;;;23.82;33.46;-18666.31;5021216;28;19921;-79
2023/06/04 11:03:34;;;;;;;;;;;;;;;23.81;33.70;-18666.06;5021206;28;19973;-79
2023/06/04 11:06:00;;;;;;;;;;;;;;;23.91;32.93;-18668.63;5019881;28;19921;-79
2023/06/04 11:08:29;;;;;;;;;;;;;;;24.21;33.01;-18676.63;5019097;28;19929;-79
2023/06/04 11:10:54;;;;;;;;;;;;;;;24.21;32.76;-18676.63;5020812;28;19999;-79
2023/06/04 11:13:23;;;;;;;;;;;;;;;24.38;33.32;-18681.22;5023977;28;20410;-79
2023/06/04 11:15:49;;;;;;;;;;;;;;;24.36;32.13;-18680.69;5021247;28;19932;-79
2023/06/04 11:18:15;;;;;;;;;;;;;;;24.27;33.00;-18678.38;5024588;28;20115;-79
2023/06/04 11:20:42;;;;;;;;;;;;;;;24.13;32.34;-18674.47;5024371;28;19922;-79
2023/06/04 11:23:07;;;;;;;;;;;;;;;24.25;33.19;-18677.84;5022162;28;19940;-80
2023/06/04 11:25:33;;;;;;;;;;;;;;;24.43;33.50;-18682.59;5020407;28;19922;-80
2023/06/04 11:27:59;;;;;;;;;;;;;;;24.60;33.59;-18686.94;5022116;28;19944;-80
2023/06/04 11:30:25;;;;;;;;;;;;;;;24.63;32.96;-18687.88;5024358;28;19929;-80
2023/06/04 11:32:59;;;;;;;;;;;;;;;24.93;33.83;-18695.88;5012127;28;19979;-80
2023/06/04 11:35:24;;;;;;;;;;;;;;;24.91;32.53;-18695.31;5027048;28;20067;-80
2023/06/04 11:37:53;;;;;;;;;;;;;;;24.92;33.33;-18695.59;5027685;28;20387;-80
2023/06/04 11:40:19;;;;;;;;;;;;;;;24.77;32.79;-18691.53;5019132;28;19934;-80
2023/06/04 11:42:51;;;;;;;;;;;;;;;24.70;31.99;-18689.63;5022410;28;19929;-80
2023/06/04 11:45:17;;;;;;;;;;;;;;;24.55;31.42;-18685.72;5019359;28;19926;-80
2023/06/04 11:47:51;;;;;;;;;;;;;;;24.54;33.00;-18685.56;5022362;28;19921;-80
2023/06/04 11:50:16;;;;;;;;;;;;;;;24.87;32.35;-18694.09;5018993;28;19967;-80
2023/06/04 11:52:42;;;;;;;;;;;;;;;24.59;32.13;-18686.66;5018629;28;19949;-80
2023/06/04 11:55:11;;;;;;;;;;;;;;;24.66;33.02;-18688.56;5019888;28;20320;-80
2023/06/04 11:57:37;;;;;;;;;;;;;;;25.11;32.70;-18700.47;5017926;28;19928;-80
2023/06/04 12:00:05;;;;;;;;;;;;;;;25.36;32.22;-18707.25;5021040;28;19921;-80
2023/06/04 12:02:30;;;;;;;;;;;;;;;25.13;31.33;-18701.16;5020303;28;19929;-80
2023/06/04 12:04:55;;;;;;;;;;;;;;;25.34;32.82;-18706.56;5025873;28;20323;-80
2023/06/04 12:07:24;;;;;;;;;;;;;;;25.42;32.15;-18708.88;5020226;28;19983;-80
2023/06/04 12:09:49;;;;;;;;;;;;;;;25.63;30.97;-18714.28;5018428;28;19929;-80
2023/06/04 12:12:21;;;;;;;;;;;;;;;25.79;31.78;-18718.59;5019566;28;19921;-80
2023/06/04 12:14:46;;;;;;;;;;;;;;;25.91;31.92;-18721.59;5023886;28;20806;-80
2023/06/04 12:17:11;;;;;;;;;;;;;;;26.04;31.90;-18725.09;5022332;28;20065;-81
2023/06/04 12:19:50;;;;;;;;;;;;;;;25.90;30.88;-18721.44;5023737;28;19932;-80
2023/06/04 12:22:15;;;;;;;;;;;;;;;25.84;31.03;-18719.97;5023261;28;19929;-80
2023/06/04 12:24:54;;;;;;;;;;;;;;;25.97;31.56;-18723.22;5043277;28;19929;-81
2023/06/04 12:27:24;;;;;;;;;;;;;;;25.31;30.92;-18705.88;5024183;28;19921;-81
2023/06/04 12:29:56;;;;;;;;;;;;;;;25.51;31.92;-18711.03;5029623;28;19985;-82